createdAt,value
2023-04-15T00:03:36.421Z,96.18
2023-04-15T00:08:41.943Z,96.19
2023-04-15T00:13:47.368Z,96.12
2023-04-15T00:18:52.604Z,96.07
2023-04-15T00:23:58.073Z,96.24
2023-04-15T00:29:03.322Z,96.37
2023-04-15T00:34:08.628Z,96.40
2023-04-15T00:39:14.178Z,96.23
2023-04-15T00:44:19.646Z,96.32
2023-04-15T00:49:24.977Z,96.20
2023-04-15T00:54:30.295Z,96.29
2023-04-15T00:59:36.144Z,96.22
2023-04-15T01:04:42.189Z,96.08
2023-04-15T01:09:48.086Z,96.15
2023-04-15T01:14:53.751Z,96.07
2023-04-15T01:19:59.234Z,96.24
2023-04-15T01:25:13.159Z,95.99
2023-04-15T01:30:18.563Z,96.25
2023-04-15T01:35:24.359Z,96.10
2023-04-15T01:40:29.940Z,96.17
2023-04-15T01:45:35.269Z,96.08
2023-04-15T01:50:40.666Z,96.17
2023-04-15T01:55:46.033Z,96.37
2023-04-15T02:00:51.541Z,96.17
2023-04-15T02:05:56.940Z,96.27
2023-04-15T02:11:02.311Z,95.92
2023-04-15T02:16:17.643Z,96.19
2023-04-15T02:21:22.991Z,96.28
2023-04-15T02:26:28.774Z,96.29
2023-04-15T02:31:37.009Z,96.21
2023-04-15T02:36:42.445Z,96.22
2023-04-15T02:41:51.907Z,96.13
2023-04-15T02:46:58.343Z,96.12
2023-04-15T02:52:03.632Z,96.29
2023-04-15T02:57:09.055Z,96.34
2023-04-15T03:02:14.501Z,96.31
2023-04-15T03:07:20.277Z,96.47
2023-04-15T03:12:25.911Z,96.52
2023-04-15T03:17:31.247Z,96.48
2023-04-15T03:22:36.618Z,96.44
2023-04-15T03:27:42.020Z,96.51
2023-04-15T03:32:47.527Z,96.78
2023-04-15T03:37:52.956Z,96.73
2023-04-15T03:42:58.333Z,96.52
2023-04-15T03:48:16.541Z,96.51
2023-04-15T03:53:23.049Z,96.60
2023-04-15T03:58:28.350Z,96.80
2023-04-15T04:03:34.002Z,96.86
2023-04-15T04:08:39.747Z,96.94
2023-04-15T04:13:45.079Z,96.88
2023-04-15T04:18:50.390Z,96.99
2023-04-15T04:23:56.786Z,96.94
2023-04-15T04:29:02.244Z,97.06
2023-04-15T04:34:07.790Z,97.09
2023-04-15T04:39:13.030Z,97.06
2023-04-15T04:44:18.314Z,97.20
2023-04-15T04:49:23.536Z,97.33
2023-04-15T04:54:28.992Z,97.10
2023-04-15T04:59:34.331Z,97.19
2023-04-15T05:04:39.645Z,97.50
2023-04-15T05:09:44.877Z,97.39
2023-04-15T05:14:50.238Z,97.44
2023-04-15T05:19:55.836Z,97.43
2023-04-15T05:25:01.200Z,97.40
2023-04-15T05:30:08.870Z,97.53
2023-04-15T05:35:14.292Z,97.54
2023-04-15T05:40:20.150Z,97.14
2023-04-15T05:45:25.549Z,97.37
2023-04-15T05:50:31.296Z,97.37
2023-04-15T05:55:36.919Z,97.32
2023-04-15T06:00:42.369Z,97.00
2023-04-15T06:05:47.647Z,97.01
2023-04-15T06:10:53.004Z,97.07
2023-04-15T06:15:58.545Z,96.82
2023-04-15T06:21:04.490Z,96.70
2023-04-15T06:26:09.936Z,96.36
2023-04-15T06:31:16.047Z,96.01
2023-04-15T06:36:21.707Z,95.53
2023-04-15T06:41:26.969Z,95.31
2023-04-15T06:46:32.689Z,94.74
2023-04-15T06:51:38.058Z,94.71
2023-04-15T06:56:43.425Z,94.24
2023-04-15T07:01:48.691Z,93.45
2023-04-15T07:06:55.563Z,93.11
2023-04-15T07:12:00.891Z,92.48
2023-04-15T07:17:06.753Z,92.26
2023-04-15T07:22:12.123Z,91.98
2023-04-15T07:27:18.016Z,91.07
2023-04-15T07:32:23.255Z,91.27
2023-04-15T07:37:28.617Z,91.14
2023-04-15T07:42:34.240Z,91.02
2023-04-15T07:47:40.793Z,90.48
2023-04-15T07:52:46.470Z,91.02
2023-04-15T07:57:52.012Z,90.24
2023-04-15T08:02:59.656Z,90.17
2023-04-15T08:08:05.191Z,89.96
2023-04-15T08:13:10.952Z,89.63
2023-04-15T08:18:16.438Z,89.88
2023-04-15T08:23:21.701Z,89.35
2023-04-15T08:28:27.182Z,89.72
2023-04-15T08:33:32.564Z,89.91
2023-04-15T08:38:38.067Z,89.92
2023-04-15T08:43:51.798Z,90.22
2023-04-15T08:48:59.974Z,90.26
2023-04-15T08:54:09.629Z,90.04
2023-04-15T08:59:18.334Z,89.93
2023-04-15T09:09:57.826Z,89.80
2023-04-15T09:15:04.149Z,89.85
2023-04-15T09:20:15.040Z,90.11
2023-04-15T09:25:32.764Z,89.70
2023-04-15T09:30:43.262Z,89.34
2023-04-15T09:35:59.088Z,89.90
2023-04-15T09:41:16.891Z,88.87
2023-04-15T09:46:40.293Z,88.48
2023-04-15T09:51:57.606Z,88.23
2023-04-15T09:57:10.866Z,88.81
2023-04-15T10:02:18.870Z,89.07
2023-04-15T10:07:25.687Z,89.53
2023-04-15T10:12:33.557Z,89.47
2023-04-15T10:17:42.512Z,88.10
2023-04-15T10:22:48.668Z,88.15
2023-04-15T10:27:54.264Z,88.31
2023-04-15T10:33:00.221Z,88.63
2023-04-15T10:38:35.663Z,88.89
2023-04-15T10:43:45.522Z,88.85
2023-04-15T10:48:52.682Z,88.92
2023-04-15T10:54:00.005Z,89.26
2023-04-15T10:59:07.469Z,89.49
2023-04-15T11:04:12.849Z,89.17
2023-04-15T11:09:34.453Z,89.60
2023-04-15T11:14:43.427Z,89.85
2023-04-15T11:19:48.928Z,89.72
2023-04-15T11:24:54.561Z,89.44
2023-04-15T11:29:59.988Z,89.66
2023-04-15T11:35:06.239Z,90.19
2023-04-15T11:40:12.595Z,90.59
2023-04-15T11:45:18.387Z,90.50
2023-04-15T11:50:24.944Z,90.59
2023-04-15T11:55:31.465Z,90.41
2023-04-15T12:00:38.139Z,91.06
2023-04-15T12:06:04.827Z,90.91
2023-04-15T12:11:10.377Z,90.94
2023-04-15T12:16:19.558Z,91.37
2023-04-15T12:21:26.576Z,91.55
2023-04-15T12:26:34.266Z,91.80
2023-04-15T12:31:49.645Z,91.78
2023-04-15T12:36:55.851Z,92.31
2023-04-15T12:42:01.652Z,92.09
2023-04-15T12:47:08.871Z,92.28
2023-04-15T12:52:15.128Z,92.23
2023-04-15T12:57:20.527Z,92.59
2023-04-15T13:02:28.596Z,92.88
2023-04-15T13:07:34.141Z,92.76
2023-04-15T13:12:39.493Z,92.55
2023-04-15T13:17:44.774Z,92.55
2023-04-15T13:22:50.418Z,92.59
2023-04-15T13:27:55.894Z,92.50
2023-04-15T13:33:01.285Z,92.64
2023-04-15T13:38:06.684Z,92.49
2023-04-15T13:43:12.247Z,92.82
2023-04-15T13:48:17.728Z,93.28
2023-04-15T13:53:33.863Z,93.14
2023-04-15T13:58:44.677Z,93.36
2023-04-15T14:03:50.100Z,93.09
2023-04-15T14:08:56.105Z,93.41
2023-04-15T14:14:01.381Z,93.53
2023-04-15T14:19:07.017Z,93.39
2023-04-15T14:24:12.783Z,93.65
2023-04-15T14:29:18.189Z,93.53
2023-04-15T14:34:25.328Z,93.67
2023-04-15T14:39:30.831Z,93.85
2023-04-15T14:44:36.176Z,93.77
2023-04-15T14:49:41.618Z,94.00
2023-04-15T14:54:46.951Z,94.16
2023-04-15T14:59:56.557Z,94.04
2023-04-15T15:05:02.729Z,94.19
2023-04-15T15:10:10.672Z,94.27
2023-04-15T15:15:28.184Z,94.31
2023-04-15T15:20:35.414Z,94.16
2023-04-15T15:25:40.792Z,94.59
2023-04-15T15:30:46.215Z,94.50
2023-04-15T15:35:51.972Z,94.79
2023-04-15T15:40:57.285Z,94.73
2023-04-15T15:46:03.768Z,94.76
2023-04-15T15:51:10.902Z,95.15
2023-04-15T15:56:16.294Z,95.19
2023-04-15T16:01:21.934Z,95.45
2023-04-15T16:06:27.411Z,95.37
2023-04-15T16:11:32.713Z,95.40
2023-04-15T16:16:38.422Z,95.27
2023-04-15T16:21:44.661Z,95.34
2023-04-15T16:26:50.633Z,95.52
2023-04-15T16:31:56.460Z,95.49
2023-04-15T16:37:02.621Z,95.50
2023-04-15T16:42:08.065Z,95.59
2023-04-15T16:47:13.368Z,95.66
2023-04-15T16:52:18.750Z,95.79
2023-04-15T16:57:24.668Z,95.75
2023-04-15T17:02:36.859Z,96.02
2023-04-15T17:07:42.457Z,96.01
2023-04-15T17:12:47.748Z,95.89
2023-04-15T17:17:53.283Z,96.08
2023-04-15T17:22:58.634Z,96.11
2023-04-15T17:28:04.325Z,96.10
2023-04-15T17:33:50.555Z,96.05
2023-04-15T17:38:34.947Z,96.14
2023-04-15T17:43:40.392Z,96.17
2023-04-15T17:48:45.829Z,96.53
2023-04-15T17:53:51.463Z,96.44
2023-04-15T17:58:58.341Z,96.68
2023-04-15T18:04:04.004Z,96.54
2023-04-15T18:09:09.843Z,96.59
2023-04-15T18:14:23.532Z,96.72
2023-04-15T18:19:38.772Z,96.90
2023-04-15T18:24:44.365Z,97.12
2023-04-15T18:29:50.637Z,97.29
2023-04-15T18:34:56.425Z,97.12
2023-04-15T18:40:01.873Z,97.05
2023-04-15T18:45:08.709Z,97.23
2023-04-15T18:50:14.090Z,97.22
2023-04-15T18:55:19.638Z,97.28
2023-04-15T19:00:25.264Z,97.49
2023-04-15T19:05:31.153Z,97.60
2023-04-15T19:10:36.770Z,97.60
2023-04-15T19:15:42.240Z,97.69
2023-04-15T19:20:50.197Z,97.79
2023-04-15T19:25:57.050Z,97.55
2023-04-15T19:31:02.449Z,97.67
2023-04-15T19:36:08.533Z,97.59
2023-04-15T19:41:14.500Z,97.78
2023-04-15T19:46:20.432Z,97.66
2023-04-15T19:51:26.772Z,97.63
2023-04-15T19:56:34.248Z,97.89
2023-04-15T20:01:40.098Z,97.96
2023-04-15T20:06:45.490Z,97.65
2023-04-15T20:12:46.906Z,97.71
2023-04-15T20:17:16.494Z,97.72
2023-04-15T20:22:22.055Z,97.75
2023-04-15T20:27:27.604Z,97.81
2023-04-15T20:32:35.927Z,98.01
2023-04-15T20:37:45.043Z,98.07
2023-04-15T20:42:50.586Z,98.06
2023-04-15T20:47:56.561Z,97.87
2023-04-15T20:53:02.490Z,98.09
2023-04-15T20:58:08.150Z,97.94
2023-04-15T21:03:13.888Z,98.07
2023-04-15T21:08:19.421Z,97.82
2023-04-15T21:13:25.640Z,97.88
2023-04-15T21:18:31.412Z,98.15
2023-04-15T21:23:36.778Z,98.35
2023-04-15T21:28:42.324Z,98.30
2023-04-15T21:33:47.970Z,98.19
2023-04-15T21:38:53.256Z,98.49
2023-04-15T21:43:58.691Z,98.33
2023-04-15T21:49:04.613Z,98.34
2023-04-15T21:54:10.320Z,98.40
2023-04-15T21:59:15.567Z,98.63
2023-04-15T22:04:21.091Z,98.51
2023-04-15T22:09:26.506Z,98.38
2023-04-15T22:14:32.430Z,98.55
2023-04-15T22:19:37.893Z,98.72
2023-04-15T22:24:43.149Z,98.73
2023-04-15T22:29:48.780Z,98.55
2023-04-15T22:34:54.258Z,98.77
2023-04-15T22:39:59.823Z,98.69
2023-04-15T22:45:06.501Z,98.79
2023-04-15T22:50:12.320Z,98.66
2023-04-15T22:55:18.144Z,98.77
2023-04-15T23:00:23.509Z,98.68
2023-04-15T23:05:28.883Z,98.69
2023-04-15T23:10:34.642Z,98.73
2023-04-15T23:15:39.910Z,98.75
2023-04-15T23:20:45.861Z,98.61
2023-04-15T23:25:51.155Z,98.62
2023-04-15T23:30:57.971Z,98.97
2023-04-15T23:36:05.003Z,98.70
2023-04-15T23:41:11.913Z,98.78
2023-04-15T23:46:17.273Z,98.60
2023-04-15T23:51:22.908Z,98.72
2023-04-15T23:56:28.189Z,98.68
